Time;durP1;ratioP1;P1;durP2;ratioP2;P2;SDS_P1;SDS_P2;PMS_P1;PMS_P2;Temp;Humidity;BMP_temperature;BMP_pressure;BME280_temperature;BME280_humidity;BME280_pressure;Samples;Min_cycle;Max_cycle;Signal;HPM_P1;HPM_P2
2022/12/28 00:01:11;;;;;;;12.67;5.40;;;;;;;;;;5057233;28;20045;-84
2022/12/28 00:03:37;;;;;;;12.53;5.03;;;;;;;;;;5040331;28;20291;-84
2022/12/28 00:06:03;;;;;;;13.40;5.10;;;;;;;;;;5075016;28;20302;-85
2022/12/28 00:08:29;;;;;;;14.45;5.30;;;;;;;;;;5074417;28;20762;-84
2022/12/28 00:11:02;;;;;;;11.48;5.20;;;;;;;;;;5075176;28;20127;-83
2022/12/28 00:13:32;;;;;;;13.90;5.65;;;;;;;;;;5074070;28;20493;-84
2022/12/28 00:15:59;;;;;;;15.07;5.60;;;;;;;;;;5074578;28;20094;-84
2022/12/28 00:18:25;;;;;;;15.40;5.80;;;;;;;;;;5074725;28;20309;-84
2022/12/28 00:20:58;;;;;;;15.23;5.75;;;;;;;;;;5074230;28;20048;-85
2022/12/28 00:23:24;;;;;;;19.02;6.07;;;;;;;;;;5074119;28;20055;-85
2022/12/28 00:25:51;;;;;;;14.32;6.30;;;;;;;;;;5074120;28;20044;-85
2022/12/28 00:28:17;;;;;;;15.68;6.13;;;;;;;;;;5074065;28;20067;-85
2022/12/28 00:30:43;;;;;;;15.43;6.05;;;;;;;;;;5074126;28;20085;-85
2022/12/28 00:33:09;;;;;;;13.55;6.15;;;;;;;;;;5056379;28;20040;-85
2022/12/28 00:35:36;;;;;;;13.32;7.07;;;;;;;;;;5074527;28;20048;-85
2022/12/28 00:38:02;;;;;;;14.02;6.88;;;;;;;;;;5073995;28;20468;-86
2022/12/28 00:40:28;;;;;;;16.13;6.80;;;;;;;;;;5074546;28;20055;-85
2022/12/28 00:42:54;;;;;;;14.73;6.55;;;;;;;;;;5056895;28;20056;-85
2022/12/28 00:45:20;;;;;;;14.57;6.77;;;;;;;;;;5039322;28;20056;-85
2022/12/28 00:47:46;;;;;;;11.40;6.15;;;;;;;;;;5073790;28;20275;-86
2022/12/28 00:50:12;;;;;;;13.65;6.40;;;;;;;;;;5056290;28;20135;-85
2022/12/28 00:52:38;;;;;;;19.02;6.88;;;;;;;;;;5074064;28;20060;-86
2022/12/28 00:55:04;;;;;;;14.82;7.15;;;;;;;;;;5056021;28;20051;-85
2022/12/28 00:57:31;;;;;;;16.92;6.80;;;;;;;;;;5073462;28;20093;-86
2022/12/28 00:59:57;;;;;;;17.77;6.20;;;;;;;;;;5073541;28;20079;-85
2022/12/28 01:02:23;;;;;;;12.73;6.28;;;;;;;;;;5055707;28;20286;-86
2022/12/28 01:04:49;;;;;;;18.83;6.50;;;;;;;;;;5074018;28;20047;-85
2022/12/28 01:07:15;;;;;;;15.30;7.32;;;;;;;;;;5056237;28;20048;-87
2022/12/28 01:09:41;;;;;;;18.13;6.78;;;;;;;;;;5073467;28;20106;-87
2022/12/28 01:12:07;;;;;;;17.17;6.18;;;;;;;;;;5056462;28;20044;-85
2022/12/28 01:14:33;;;;;;;17.00;6.95;;;;;;;;;;5073259;28;20063;-86
2022/12/28 01:16:59;;;;;;;13.85;6.70;;;;;;;;;;5055455;28;20072;-86
2022/12/28 01:19:25;;;;;;;22.33;7.60;;;;;;;;;;5073987;28;20048;-85
2022/12/28 01:21:52;;;;;;;16.10;7.70;;;;;;;;;;5073298;28;20099;-84
2022/12/28 01:24:18;;;;;;;14.68;7.00;;;;;;;;;;5073196;28;20308;-85
2022/12/28 01:26:44;;;;;;;17.92;7.25;;;;;;;;;;5073412;28;20465;-84
2022/12/28 01:29:10;;;;;;;16.50;7.28;;;;;;;;;;5073895;28;20045;-84
2022/12/28 01:31:36;;;;;;;15.32;6.22;;;;;;;;;;5055453;28;20049;-84
2022/12/28 01:34:02;;;;;;;13.63;7.72;;;;;;;;;;5073045;28;20048;-83
2022/12/28 01:36:30;;;;;;;15.43;7.13;;;;;;;;;;5073174;28;20056;-83
2022/12/28 01:38:57;;;;;;;12.75;7.47;;;;;;;;;;5073742;28;20321;-83
2022/12/28 01:41:25;;;;;;;16.27;8.00;;;;;;;;;;5055363;28;20532;-83
2022/12/28 01:43:53;;;;;;;15.40;8.05;;;;;;;;;;5073662;28;20282;-83
2022/12/28 01:46:19;;;;;;;18.90;9.27;;;;;;;;;;5055318;28;20526;-83
2022/12/28 01:48:52;;;;;;;17.37;8.57;;;;;;;;;;5073085;28;20634;-82
2022/12/28 01:51:19;;;;;;;16.45;9.23;;;;;;;;;;5073436;28;20287;-82
2022/12/28 01:53:46;;;;;;;17.30;9.50;;;;;;;;;;5057473;28;20086;-82
2022/12/28 01:56:12;;;;;;;20.77;9.27;;;;;;;;;;5077060;28;20693;-82
2022/12/28 01:58:39;;;;;;;17.42;9.55;;;;;;;;;;5076918;28;20299;-82
2022/12/28 02:01:05;;;;;;;19.13;9.57;;;;;;;;;;5059262;28;20478;-82
2022/12/28 02:03:32;;;;;;;17.67;9.35;;;;;;;;;;5059260;28;20762;-83
2022/12/28 02:06:00;;;;;;;17.33;9.07;;;;;;;;;;5076877;28;20178;-82
2022/12/28 02:08:29;;;;;;;14.50;8.73;;;;;;;;;;5042682;28;20287;-82
2022/12/28 02:10:55;;;;;;;16.85;9.10;;;;;;;;;;5076825;28;20283;-83
2022/12/28 02:13:22;;;;;;;15.15;9.35;;;;;;;;;;5076719;28;20388;-83
2022/12/28 02:15:48;;;;;;;15.27;8.85;;;;;;;;;;5076642;28;20044;-82
2022/12/28 02:18:16;;;;;;;14.87;10.40;;;;;;;;;;5076608;28;20102;-83
2022/12/28 02:20:51;;;;;;;16.85;9.23;;;;;;;;;;5043048;28;20286;-83
2022/12/28 02:23:17;;;;;;;16.60;8.98;;;;;;;;;;5059696;28;20136;-82
2022/12/28 02:25:46;;;;;;;19.20;9.90;;;;;;;;;;5076419;28;20048;-83
2022/12/28 02:28:24;;;;;;;18.20;9.73;;;;;;;;;;5076075;28;20279;-84
2022/12/28 02:30:54;;;;;;;16.30;8.83;;;;;;;;;;5059518;28;20663;-83
2022/12/28 02:33:27;;;;;;;16.98;9.30;;;;;;;;;;5076903;28;20274;-84
2022/12/28 02:35:56;;;;;;;16.17;9.73;;;;;;;;;;5076264;28;20094;-83
2022/12/28 02:38:28;;;;;;;18.60;9.73;;;;;;;;;;5041758;28;20044;-84
2022/12/28 02:41:06;;;;;;;14.48;8.98;;;;;;;;;;5076384;28;20283;-83
2022/12/28 02:43:33;;;;;;;16.13;10.27;;;;;;;;;;5076252;28;20048;-84
2022/12/28 02:51:37;;;;;;;18.90;10.38;;;;;;;;;;5075912;28;20135;-83
2022/12/28 02:54:06;;;;;;;20.93;10.87;;;;;;;;;;5076002;28;20481;-83
2022/12/28 02:56:32;;;;;;;17.30;11.27;;;;;;;;;;5058978;28;20382;-83
2022/12/28 02:58:58;;;;;;;16.43;11.10;;;;;;;;;;5076548;28;20043;-82
2022/12/28 03:01:24;;;;;;;18.90;11.53;;;;;;;;;;5075786;28;20279;-83
2022/12/28 03:03:54;;;;;;;18.77;11.77;;;;;;;;;;5076054;28;20686;-82
2022/12/28 03:09:25;;;;;;;18.33;11.30;;;;;;;;;;5075939;28;20279;-82
2022/12/28 03:11:54;;;;;;;18.73;11.37;;;;;;;;;;5058369;28;20279;-82
2022/12/28 03:14:23;;;;;;;15.97;11.43;;;;;;;;;;5075627;28;20286;-82
2022/12/28 03:33:30;;;;;;;16.00;12.25;;;;;;;;;;5075241;28;20188;-82
2022/12/28 03:36:03;;;;;;;18.37;11.63;;;;;;;;;;5075263;28;20049;-81
2022/12/28 03:38:34;;;;;;;20.65;12.55;;;;;;;;;;5075378;28;20294;-83
2022/12/28 03:41:06;;;;;;;16.00;11.83;;;;;;;;;;5075901;28;20049;-82
2022/12/28 03:43:43;;;;;;;19.73;13.03;;;;;;;;;;5075113;28;20310;-82
2022/12/28 03:46:09;;;;;;;17.90;13.65;;;;;;;;;;5075555;28;20279;-82
2022/12/28 03:48:36;;;;;;;20.27;13.77;;;;;;;;;;5074935;28;20182;-83
2022/12/28 03:51:03;;;;;;;19.77;13.27;;;;;;;;;;5074529;28;20358;-82
2022/12/28 03:53:31;;;;;;;17.60;13.27;;;;;;;;;;5075383;28;20360;-83
2022/12/28 03:56:07;;;;;;;16.40;13.03;;;;;;;;;;5074806;28;20366;-82
2022/12/28 03:58:33;;;;;;;19.08;13.77;;;;;;;;;;5075409;28;20332;-83
2022/12/28 04:00:59;;;;;;;15.97;12.70;;;;;;;;;;5074664;28;20131;-81
2022/12/28 04:03:25;;;;;;;17.80;14.10;;;;;;;;;;5074642;28;20286;-82
2022/12/28 04:05:51;;;;;;;19.33;13.17;;;;;;;;;;5057158;28;20337;-81
2022/12/28 04:08:17;;;;;;;19.27;13.47;;;;;;;;;;5040375;28;20298;-81
2022/12/28 04:10:43;;;;;;;17.60;13.83;;;;;;;;;;5074439;28;20278;-82
2022/12/28 04:13:09;;;;;;;17.30;12.57;;;;;;;;;;5074496;28;20306;-81
2022/12/28 04:15:35;;;;;;;20.77;13.13;;;;;;;;;;5040353;28;20286;-82
2022/12/28 04:18:01;;;;;;;19.03;13.70;;;;;;;;;;5074170;28;20313;-82
2022/12/28 04:20:27;;;;;;;19.47;14.10;;;;;;;;;;5074280;28;20362;-82
2022/12/28 04:22:53;;;;;;;20.90;14.30;;;;;;;;;;5074247;28;20274;-82
2022/12/28 04:25:19;;;;;;;18.57;14.03;;;;;;;;;;5056598;28;20631;-82
2022/12/28 04:27:45;;;;;;;21.30;14.77;;;;;;;;;;5074131;28;20366;-82
2022/12/28 04:30:12;;;;;;;19.53;15.03;;;;;;;;;;5056469;28;20286;-81
2022/12/28 04:32:38;;;;;;;20.80;15.93;;;;;;;;;;5074040;28;20329;-81
2022/12/28 04:35:04;;;;;;;21.43;16.67;;;;;;;;;;5057181;28;20627;-81
2022/12/28 04:37:30;;;;;;;21.47;17.80;;;;;;;;;;5073897;28;20286;-81
2022/12/28 04:39:56;;;;;;;21.63;16.17;;;;;;;;;;5057084;28;20325;-81
2022/12/28 04:42:22;;;;;;;21.17;17.10;;;;;;;;;;5073888;28;20759;-81
2022/12/28 04:44:48;;;;;;;22.97;17.57;;;;;;;;;;5074363;28;20314;-82
2022/12/28 04:47:15;;;;;;;24.67;18.50;;;;;;;;;;5073829;28;20287;-82
2022/12/28 04:49:41;;;;;;;27.00;19.43;;;;;;;;;;5074220;28;20275;-80
2022/12/28 04:52:07;;;;;;;26.70;19.60;;;;;;;;;;5055620;28;20759;-81
2022/12/28 04:54:33;;;;;;;25.80;18.57;;;;;;;;;;5073661;28;20283;-81
2022/12/28 04:56:59;;;;;;;22.20;18.63;;;;;;;;;;5056000;28;20378;-81
2022/12/28 04:59:25;;;;;;;27.83;19.70;;;;;;;;;;5073555;28;20298;-80
2022/12/28 05:01:51;;;;;;;25.83;18.57;;;;;;;;;;5073514;28;20281;-81
2022/12/28 05:04:17;;;;;;;27.30;18.63;;;;;;;;;;5073599;28;20283;-81
2022/12/28 05:06:43;;;;;;;25.70;19.00;;;;;;;;;;5056130;28;20303;-81
2022/12/28 05:09:10;;;;;;;26.00;17.60;;;;;;;;;;5073509;28;20377;-81
2022/12/28 05:11:36;;;;;;;27.37;20.53;;;;;;;;;;5055786;28;20275;-82
2022/12/28 05:14:02;;;;;;;28.97;18.63;;;;;;;;;;5073392;28;20348;-81
2022/12/28 05:16:29;;;;;;;25.37;19.43;;;;;;;;;;5073945;28;20385;-82
2022/12/28 05:18:56;;;;;;;23.40;17.53;;;;;;;;;;5073335;28;20298;-82
2022/12/28 05:21:23;;;;;;;24.90;17.70;;;;;;;;;;5073891;28;20271;-82
2022/12/28 05:23:50;;;;;;;23.13;18.30;;;;;;;;;;5073771;28;20275;-82
2022/12/28 05:26:17;;;;;;;27.63;18.27;;;;;;;;;;5073371;28;20354;-82
2022/12/28 05:28:44;;;;;;;25.27;18.43;;;;;;;;;;5072475;28;20905;-82
2022/12/28 05:31:11;;;;;;;23.93;17.47;;;;;;;;;;5055856;28;20696;-83
2022/12/28 05:33:38;;;;;;;21.17;17.10;;;;;;;;;;5073215;28;20417;-82
2022/12/28 05:36:04;;;;;;;24.17;17.57;;;;;;;;;;5073131;28;20834;-82
2022/12/28 05:38:31;;;;;;;22.73;17.07;;;;;;;;;;5073108;28;20427;-82
2022/12/28 05:41:03;;;;;;;24.67;16.20;;;;;;;;;;5073173;28;20290;-82
2022/12/28 05:43:30;;;;;;;21.77;17.03;;;;;;;;;;5073212;28;20275;-83
2022/12/28 05:45:59;;;;;;;23.33;17.40;;;;;;;;;;5073094;28;20318;-83
2022/12/28 05:48:25;;;;;;;22.83;16.80;;;;;;;;;;5055327;28;20786;-83
2022/12/28 05:50:51;;;;;;;21.67;16.33;;;;;;;;;;5055883;28;20368;-83
2022/12/28 05:53:18;;;;;;;19.57;15.50;;;;;;;;;;5072893;28;20397;-83
2022/12/28 05:55:44;;;;;;;22.20;14.63;;;;;;;;;;5072893;28;20321;-84
2022/12/28 05:58:10;;;;;;;24.07;17.53;;;;;;;;;;5055388;28;20335;-82
2022/12/28 06:00:36;;;;;;;17.63;15.20;;;;;;;;;;5055452;28;20627;-82
2022/12/28 06:03:02;;;;;;;19.43;16.17;;;;;;;;;;5072805;28;20361;-83
2022/12/28 06:05:28;;;;;;;17.63;13.90;;;;;;;;;;5055975;28;20294;-83
2022/12/28 06:07:54;;;;;;;21.03;15.13;;;;;;;;;;5038597;28;20367;-83
2022/12/28 06:10:20;;;;;;;21.63;15.17;;;;;;;;;;5073392;28;20679;-83
2022/12/28 06:12:46;;;;;;;20.80;16.13;;;;;;;;;;5054729;28;20350;-82
2022/12/28 06:15:12;;;;;;;19.43;15.07;;;;;;;;;;5072794;28;20285;-83
2022/12/28 06:17:39;;;;;;;20.67;15.87;;;;;;;;;;5055109;28;20634;-83
2022/12/28 06:20:05;;;;;;;18.47;14.83;;;;;;;;;;5073272;28;20327;-83
2022/12/28 06:22:31;;;;;;;21.53;14.77;;;;;;;;;;5038640;28;20287;-83
2022/12/28 06:24:57;;;;;;;19.50;15.27;;;;;;;;;;5072688;28;20314;-83
2022/12/28 06:27:23;;;;;;;21.00;14.97;;;;;;;;;;5055033;28;20360;-84
2022/12/28 06:29:49;;;;;;;19.90;15.60;;;;;;;;;;5054745;28;20333;-84
2022/12/28 06:32:15;;;;;;;20.73;16.33;;;;;;;;;;5072720;28;20279;-83
2022/12/28 06:34:41;;;;;;;22.07;16.47;;;;;;;;;;5055736;28;20327;-84
2022/12/28 06:37:08;;;;;;;20.53;15.17;;;;;;;;;;5072867;28;20349;-83
2022/12/28 06:39:34;;;;;;;18.97;16.37;;;;;;;;;;5055583;28;20718;-84
2022/12/28 06:42:00;;;;;;;20.67;14.97;;;;;;;;;;5058861;28;20290;-84
2022/12/28 06:44:26;;;;;;;24.43;16.33;;;;;;;;;;5041900;28;20345;-83
2022/12/28 06:46:53;;;;;;;19.67;15.67;;;;;;;;;;5058319;28;20282;-83
2022/12/28 06:49:19;;;;;;;24.10;16.23;;;;;;;;;;5076062;28;20329;-83
2022/12/28 06:51:46;;;;;;;21.83;15.43;;;;;;;;;;5057567;28;20322;-82
2022/12/28 06:54:12;;;;;;;20.83;15.53;;;;;;;;;;5076535;28;20743;-83
2022/12/28 06:56:38;;;;;;;22.20;15.50;;;;;;;;;;5075912;28;20289;-82
2022/12/28 06:59:04;;;;;;;22.13;16.07;;;;;;;;;;5076623;28;20631;-83
2022/12/28 07:01:35;;;;;;;21.83;16.83;;;;;;;;;;5076645;28;20424;-83
2022/12/28 07:04:02;;;;;;;19.53;15.20;;;;;;;;;;5075767;28;20823;-83
2022/12/28 07:06:29;;;;;;;24.60;16.33;;;;;;;;;;5075427;28;20778;-83
2022/12/28 07:08:59;;;;;;;20.53;15.13;;;;;;;;;;5075788;28;20279;-83
2022/12/28 07:11:25;;;;;;;23.00;15.90;;;;;;;;;;5075911;28;20368;-83
2022/12/28 07:13:51;;;;;;;23.27;13.90;;;;;;;;;;5075640;28;20750;-84
2022/12/28 07:16:19;;;;;;;23.50;14.97;;;;;;;;;;5075543;28;20380;-84
2022/12/28 07:18:45;;;;;;;22.17;14.27;;;;;;;;;;5075477;28;20329;-84
2022/12/28 07:21:13;;;;;;;21.10;13.40;;;;;;;;;;5076239;28;20603;-83
2022/12/28 07:23:39;;;;;;;28.77;13.90;;;;;;;;;;5075997;28;20282;-83
2022/12/28 07:26:08;;;;;;;22.57;12.37;;;;;;;;;;5075352;28;20282;-83
2022/12/28 07:28:37;;;;;;;21.20;12.53;;;;;;;;;;5075408;28;20314;-83
2022/12/28 07:31:07;;;;;;;21.77;12.90;;;;;;;;;;5057549;28;20286;-83
2022/12/28 07:33:34;;;;;;;24.23;11.60;;;;;;;;;;5075314;28;20337;-83
2022/12/28 07:36:00;;;;;;;22.77;12.20;;;;;;;;;;5075129;28;20373;-84
2022/12/28 07:38:27;;;;;;;20.73;10.97;;;;;;;;;;5075048;28;20382;-84
2022/12/28 07:40:53;;;;;;;19.57;10.60;;;;;;;;;;5075030;28;20294;-84
2022/12/28 07:43:19;;;;;;;19.03;10.63;;;;;;;;;;5057613;28;20374;-84
2022/12/28 07:45:45;;;;;;;15.63;10.83;;;;;;;;;;5075185;28;20831;-84
2022/12/28 07:48:11;;;;;;;16.93;10.60;;;;;;;;;;5074928;28;20320;-84
2022/12/28 07:50:37;;;;;;;16.77;10.63;;;;;;;;;;5075080;28;20279;-85
2022/12/28 07:53:03;;;;;;;16.23;10.33;;;;;;;;;;5075003;28;20373;-85
2022/12/28 07:55:30;;;;;;;21.63;12.33;;;;;;;;;;5057426;28;20283;-85
2022/12/28 07:57:56;;;;;;;19.20;12.07;;;;;;;;;;5074609;28;20639;-83
2022/12/28 08:00:23;;;;;;;18.60;13.07;;;;;;;;;;5074695;28;20318;-85
2022/12/28 08:02:49;;;;;;;20.93;12.57;;;;;;;;;;5074662;28;20291;-84
2022/12/28 08:05:15;;;;;;;16.37;13.47;;;;;;;;;;5056685;28;20286;-86
2022/12/28 08:07:41;;;;;;;18.90;12.97;;;;;;;;;;5056705;28;20329;-86
2022/12/28 08:10:07;;;;;;;20.97;12.13;;;;;;;;;;5074555;28;20347;-86
2022/12/28 08:12:33;;;;;;;17.83;12.90;;;;;;;;;;5074445;28;20275;-86
2022/12/28 08:15:00;;;;;;;20.40;13.10;;;;;;;;;;5056751;28;20374;-85
2022/12/28 08:17:26;;;;;;;14.67;12.37;;;;;;;;;;5074276;28;20283;-85
2022/12/28 08:19:54;;;;;;;17.83;11.73;;;;;;;;;;5074476;28;20310;-85
2022/12/28 08:22:20;;;;;;;17.27;11.70;;;;;;;;;;5074286;28;20762;-84
2022/12/28 08:24:46;;;;;;;14.93;10.87;;;;;;;;;;5074161;28;20279;-83
2022/12/28 08:27:12;;;;;;;14.57;10.37;;;;;;;;;;5073873;28;20766;-84
2022/12/28 08:29:38;;;;;;;15.67;9.63;;;;;;;;;;5074084;28;20281;-84
2022/12/28 08:32:04;;;;;;;12.07;9.90;;;;;;;;;;5056317;28;20370;-83
2022/12/28 08:34:31;;;;;;;14.67;9.70;;;;;;;;;;5056913;28;20619;-81
2022/12/28 08:36:57;;;;;;;13.73;9.80;;;;;;;;;;5074031;28;20287;-82
2022/12/28 08:39:23;;;;;;;12.20;8.80;;;;;;;;;;5074178;28;20338;-85
2022/12/28 08:41:49;;;;;;;11.57;8.77;;;;;;;;;;5073873;28;20283;-84
2022/12/28 08:44:15;;;;;;;13.13;9.17;;;;;;;;;;5074420;28;20279;-85
2022/12/28 08:46:41;;;;;;;12.20;8.40;;;;;;;;;;5073839;28;20313;-82
2022/12/28 08:49:07;;;;;;;13.07;8.80;;;;;;;;;;5073854;28;20285;-86
2022/12/28 08:51:35;;;;;;;11.67;8.07;;;;;;;;;;5073863;28;20422;-81
2022/12/28 08:54:01;;;;;;;12.60;8.77;;;;;;;;;;5073649;28;20283;-81
2022/12/28 08:56:32;;;;;;;10.93;8.53;;;;;;;;;;5073845;28;20290;-82
2022/12/28 08:58:59;;;;;;;10.97;8.50;;;;;;;;;;5073551;28;20295;-80
2022/12/28 09:01:26;;;;;;;9.73;7.60;;;;;;;;;;5073568;28;20293;-82
2022/12/28 09:03:53;;;;;;;12.87;8.33;;;;;;;;;;5073330;28;20315;-81
2022/12/28 09:06:24;;;;;;;11.03;7.87;;;;;;;;;;5073511;28;20293;-79
2022/12/28 09:08:51;;;;;;;13.10;8.53;;;;;;;;;;5073385;28;20314;-82
2022/12/28 09:11:18;;;;;;;11.07;8.43;;;;;;;;;;5073449;28;20404;-82
2022/12/28 09:13:44;;;;;;;15.13;9.27;;;;;;;;;;5073477;28;20283;-82
2022/12/28 09:16:11;;;;;;;12.67;8.90;;;;;;;;;;5039253;28;20318;-81
2022/12/28 09:18:38;;;;;;;12.00;8.70;;;;;;;;;;5073337;28;20394;-81
2022/12/28 09:21:05;;;;;;;10.50;8.20;;;;;;;;;;5055770;28;20626;-81
2022/12/28 09:23:31;;;;;;;12.83;8.93;;;;;;;;;;5073657;28;20279;-81
2022/12/28 09:26:03;;;;;;;14.23;9.47;;;;;;;;;;5055917;28;20286;-81
2022/12/28 09:28:29;;;;;;;11.27;9.10;;;;;;;;;;5073276;28;20357;-82
2022/12/28 09:30:55;;;;;;;10.13;7.87;;;;;;;;;;5073432;28;20315;-81
2022/12/28 09:36:06;;;;;;;12.23;8.07;;;;;;;;;;5073309;28;20366;-83
2022/12/28 09:38:32;;;;;;;10.37;7.13;;;;;;;;;;5039098;28;20342;-83
2022/12/28 09:40:58;;;;;;;8.57;6.10;;;;;;;;;;5055428;28;20340;-82
2022/12/28 09:43:25;;;;;;;9.33;6.40;;;;;;;;;;5073176;28;20810;-83
2022/12/28 09:45:52;;;;;;;10.87;6.70;;;;;;;;;;5039220;28;20675;-82
2022/12/28 09:48:21;;;;;;;8.67;6.40;;;;;;;;;;5073819;28;20275;-82
2022/12/28 09:50:48;;;;;;;11.63;7.00;;;;;;;;;;5055409;28;20299;-77
2022/12/28 09:53:25;;;;;;;9.13;6.63;;;;;;;;;;5073560;28;20299;-83
2022/12/28 09:56:03;;;;;;;10.30;7.07;;;;;;;;;;5073895;28;20279;-81
2022/12/28 09:58:30;;;;;;;10.87;7.33;;;;;;;;;;5073026;28;20310;-82
2022/12/28 10:00:57;;;;;;;11.60;7.43;;;;;;;;;;5073049;28;20813;-82
2022/12/28 10:03:36;;;;;;;12.67;8.90;;;;;;;;;;5056050;28;20287;-83
2022/12/28 10:06:03;;;;;;;19.57;10.30;;;;;;;;;;5055740;28;20321;-83
2022/12/28 10:08:29;;;;;;;16.03;11.20;;;;;;;;;;5073706;28;20619;-82
2022/12/28 10:10:58;;;;;;;20.37;13.47;;;;;;;;;;5072926;28;20293;-80
2022/12/28 10:13:26;;;;;;;18.67;12.90;;;;;;;;;;5072885;28;20330;-81
2022/12/28 10:15:53;;;;;;;21.80;14.80;;;;;;;;;;5076222;28;20318;-88
2022/12/28 10:18:22;;;;;;;23.00;15.10;;;;;;;;;;5058699;28;20314;-83
2022/12/28 10:20:48;;;;;;;23.50;15.73;;;;;;;;;;5059001;28;20291;-84
2022/12/28 10:23:18;;;;;;;26.77;17.70;;;;;;;;;;5059720;28;20289;-83
2022/12/28 10:25:45;;;;;;;20.57;15.53;;;;;;;;;;5076670;28;20281;-86
2022/12/28 10:28:11;;;;;;;24.43;16.97;;;;;;;;;;5076465;28;20761;-82
2022/12/28 10:30:47;;;;;;;23.40;15.90;;;;;;;;;;5076998;28;20290;-78
2022/12/28 10:33:18;;;;;;;24.03;15.73;;;;;;;;;;5058877;28;20355;-80
2022/12/28 10:35:51;;;;;;;22.10;16.53;;;;;;;;;;5077231;28;20318;-87
2022/12/28 10:38:22;;;;;;;24.33;18.33;;;;;;;;;;5076193;28;20298;-84
2022/12/28 10:40:55;;;;;;;31.93;19.30;;;;;;;;;;5076300;28;20631;-87
2022/12/28 10:43:21;;;;;;;24.23;18.70;;;;;;;;;;5058609;28;20374;-84
2022/12/28 10:45:49;;;;;;;21.83;16.17;;;;;;;;;;5076442;28;20283;-86
2022/12/28 10:48:18;;;;;;;19.00;15.33;;;;;;;;;;5058408;28;20278;-86
2022/12/28 10:50:47;;;;;;;24.87;17.10;;;;;;;;;;5075942;28;20282;-84
2022/12/28 10:53:16;;;;;;;22.47;15.87;;;;;;;;;;5076513;28;20374;-79
2022/12/28 10:55:42;;;;;;;20.57;15.40;;;;;;;;;;5075677;28;20775;-80
2022/12/28 10:58:22;;;;;;;20.20;15.57;;;;;;;;;;5059008;28;20368;-84
2022/12/28 11:00:55;;;;;;;21.17;15.23;;;;;;;;;;5075951;28;20321;-86
2022/12/28 11:03:26;;;;;;;21.00;15.10;;;;;;;;;;5076451;28;20329;-78
2022/12/28 11:06:08;;;;;;;17.10;13.67;;;;;;;;;;5076169;28;20286;-78
2022/12/28 11:08:35;;;;;;;21.50;13.50;;;;;;;;;;5076552;28;20298;-78
2022/12/28 11:11:01;;;;;;;19.00;13.70;;;;;;;;;;5075770;28;20616;-77
2022/12/28 11:13:27;;;;;;;18.70;14.03;;;;;;;;;;5076230;28;20819;-79
2022/12/28 11:15:54;;;;;;;20.20;13.03;;;;;;;;;;5041607;28;20322;-78
2022/12/28 11:18:20;;;;;;;18.97;13.90;;;;;;;;;;5058116;28;20302;-89
2022/12/28 11:20:50;;;;;;;19.10;13.87;;;;;;;;;;5076059;28;20387;-77
2022/12/28 11:23:18;;;;;;;16.47;12.27;;;;;;;;;;5075447;28;20361;-78
2022/12/28 11:25:45;;;;;;;17.87;12.93;;;;;;;;;;5074643;28;20362;-79
2022/12/28 11:28:21;;;;;;;15.13;11.97;;;;;;;;;;5075142;28;20279;-79
2022/12/28 11:30:49;;;;;;;14.80;11.70;;;;;;;;;;5076071;28;20282;-79
2022/12/28 11:33:33;;;;;;;16.50;11.97;;;;;;;;;;5075372;28;20283;-80
2022/12/28 11:36:00;;;;;;;16.60;11.27;;;;;;;;;;5075348;28;20282;-80
2022/12/28 11:38:37;;;;;;;16.63;11.13;;;;;;;;;;5057169;28;20131;-80
2022/12/28 11:41:03;;;;;;;12.50;9.77;;;;;;;;;;5057189;28;20295;-79
2022/12/28 11:43:29;;;;;;;14.50;10.63;;;;;;;;;;5075133;28;20318;-80
2022/12/28 11:45:56;;;;;;;11.53;9.07;;;;;;;;;;5075587;28;20655;-78
2022/12/28 11:48:41;;;;;;;11.80;9.40;;;;;;;;;;5075153;28;20705;-84
2022/12/28 11:51:27;;;;;;;12.93;9.77;;;;;;;;;;5040246;28;20338;-83
2022/12/28 11:53:56;;;;;;;12.97;9.80;;;;;;;;;;5075308;28;20287;-78
2022/12/28 11:56:23;;;;;;;15.10;10.17;;;;;;;;;;5074631;28;20787;-78
2022/12/28 11:58:58;;;;;;;16.20;10.83;;;;;;;;;;5074732;28;20385;-81
2022/12/28 12:01:32;;;;;;;13.07;11.40;;;;;;;;;;5057484;28;20382;-80
2022/12/28 12:03:58;;;;;;;14.80;10.73;;;;;;;;;;5057924;28;20055;-79
2022/12/28 12:06:43;;;;;;;14.30;10.57;;;;;;;;;;5075247;28;20279;-80
2022/12/28 12:09:27;;;;;;;13.10;10.43;;;;;;;;;;5074679;28;20287;-80
2022/12/28 12:11:54;;;;;;;12.37;10.07;;;;;;;;;;5074723;28;20275;-80
2022/12/28 12:14:22;;;;;;;13.27;10.50;;;;;;;;;;5074762;28;20287;-78
2022/12/28 12:16:50;;;;;;;13.27;10.17;;;;;;;;;;5074523;28;20758;-81
2022/12/28 12:19:22;;;;;;;12.33;10.27;;;;;;;;;;5075131;28;20302;-80
2022/12/28 12:21:52;;;;;;;13.10;9.53;;;;;;;;;;5074367;28;20646;-80
2022/12/28 12:24:27;;;;;;;12.80;10.27;;;;;;;;;;5074492;28;20282;-82
2022/12/28 12:26:57;;;;;;;11.63;9.88;;;;;;;;;;5074939;28;20289;-81
2022/12/28 12:29:34;;;;;;;11.97;9.13;;;;;;;;;;5074282;28;20044;-85
2022/12/28 12:32:05;;;;;;;12.70;8.33;;;;;;;;;;5056879;28;20783;-83
2022/12/28 12:34:43;;;;;;;11.60;8.23;;;;;;;;;;5074203;28;20286;-86
2022/12/28 12:37:28;;;;;;;11.93;8.50;;;;;;;;;;5073883;28;20287;-81
2022/12/28 12:40:09;;;;;;;12.75;7.75;;;;;;;;;;5074051;28;20342;-82
2022/12/28 12:42:54;;;;;;;13.57;8.10;;;;;;;;;;5074100;28;20059;-82
2022/12/28 12:45:38;;;;;;;13.02;8.00;;;;;;;;;;5074104;28;20651;-81
2022/12/28 12:48:04;;;;;;;8.17;5.93;;;;;;;;;;5073984;28;20089;-80
2022/12/28 12:50:41;;;;;;;8.87;6.80;;;;;;;;;;5073874;28;20297;-80
2022/12/28 12:53:16;;;;;;;9.77;6.87;;;;;;;;;;5074507;28;20293;-82
2022/12/28 12:55:50;;;;;;;8.95;6.20;;;;;;;;;;5073851;28;20322;-82
2022/12/28 12:58:27;;;;;;;10.97;6.63;;;;;;;;;;5073743;28;20051;-81
2022/12/28 13:01:09;;;;;;;8.60;6.40;;;;;;;;;;5056834;28;20348;-80
2022/12/28 13:03:42;;;;;;;7.97;6.10;;;;;;;;;;5056383;28;20291;-79
2022/12/28 13:06:10;;;;;;;8.10;5.90;;;;;;;;;;5073918;28;20376;-78
2022/12/28 13:08:38;;;;;;;10.03;5.67;;;;;;;;;;5073634;28;20311;-78
2022/12/28 13:11:07;;;;;;;6.53;5.03;;;;;;;;;;5073508;28;20370;-80
2022/12/28 13:13:35;;;;;;;7.17;4.70;;;;;;;;;;5073521;28;20290;-85
2022/12/28 13:16:03;;;;;;;7.40;4.63;;;;;;;;;;5055875;28;20650;-82
2022/12/28 13:18:30;;;;;;;8.67;5.10;;;;;;;;;;5074155;28;20298;-78
2022/12/28 13:21:03;;;;;;;8.63;5.93;;;;;;;;;;5073319;28;20298;-79
2022/12/28 13:23:31;;;;;;;9.70;5.77;;;;;;;;;;5073300;28;20373;-79
2022/12/28 13:26:01;;;;;;;9.47;5.17;;;;;;;;;;5073721;28;20283;-80
2022/12/28 13:28:27;;;;;;;7.43;4.30;;;;;;;;;;5055396;28;20817;-80
2022/12/28 13:30:59;;;;;;;9.50;4.43;;;;;;;;;;5073927;28;20379;-79
2022/12/28 13:33:25;;;;;;;6.97;4.00;;;;;;;;;;5072995;28;20880;-80
2022/12/28 13:36:03;;;;;;;10.13;5.57;;;;;;;;;;5073497;28;20274;-82
2022/12/28 13:38:30;;;;;;;15.03;8.40;;;;;;;;;;5038845;28;20662;-80
2022/12/28 13:40:56;;;;;;;12.33;8.00;;;;;;;;;;5072900;28;20651;-81
2022/12/28 13:43:53;;;;;;;17.13;11.50;;;;;;;;;;5056204;28;20322;-80
2022/12/28 13:46:19;;;;;;;12.47;6.47;;;;;;;;;;5055688;28;20287;-84
2022/12/28 13:48:48;;;;;;;8.90;4.60;;;;;;;;;;5073322;28;20350;-83
2022/12/28 13:51:15;;;;;;;8.27;4.57;;;;;;;;;;5077038;28;20320;-81
2022/12/28 13:53:43;;;;;;;10.77;4.77;;;;;;;;;;5077296;28;20279;-82
2022/12/28 13:56:12;;;;;;;12.57;6.07;;;;;;;;;;5077162;28;20291;-83
2022/12/28 13:58:46;;;;;;;9.33;4.10;;;;;;;;;;5077752;28;20294;-82
2022/12/28 14:01:15;;;;;;;24.45;14.07;;;;;;;;;;5059158;28;20283;-81
2022/12/28 14:03:42;;;;;;;10.80;5.00;;;;;;;;;;5076893;28;20127;-80
2022/12/28 14:06:09;;;;;;;12.93;8.10;;;;;;;;;;5076877;28;20357;-80
2022/12/28 14:08:37;;;;;;;9.37;4.80;;;;;;;;;;5058863;28;20322;-79
2022/12/28 14:11:04;;;;;;;8.47;4.10;;;;;;;;;;5077094;28;20282;-80
2022/12/28 14:13:31;;;;;;;9.40;4.83;;;;;;;;;;5076725;28;20278;-79
2022/12/28 14:15:57;;;;;;;12.00;4.53;;;;;;;;;;5076694;28;20310;-81
2022/12/28 14:18:24;;;;;;;12.23;5.20;;;;;;;;;;5058964;28;20312;-79
2022/12/28 14:20:54;;;;;;;13.03;5.40;;;;;;;;;;5077396;28;20314;-80
2022/12/28 14:23:22;;;;;;;10.73;4.40;;;;;;;;;;5076584;28;20282;-84
2022/12/28 14:25:49;;;;;;;10.73;4.93;;;;;;;;;;5076579;28;20702;-80
2022/12/28 14:28:38;;;;;;;13.13;5.17;;;;;;;;;;5076628;28;20286;-81
2022/12/28 14:31:05;;;;;;;13.93;5.03;;;;;;;;;;5065067;28;20291;-84
2022/12/28 14:33:35;;;;;;;15.20;5.00;;;;;;;;;;5076396;28;20805;-85
2022/12/28 14:36:03;;;;;;;9.03;4.47;;;;;;;;;;5076813;28;20271;-87
2022/12/28 14:38:33;;;;;;;10.30;4.37;;;;;;;;;;5076869;28;20681;-81
2022/12/28 14:41:00;;;;;;;12.00;5.40;;;;;;;;;;5059406;28;20370;-81
2022/12/28 14:43:28;;;;;;;14.80;6.30;;;;;;;;;;5076216;28;20337;-84
2022/12/28 14:45:55;;;;;;;13.90;7.03;;;;;;;;;;5076234;28;20293;-86
2022/12/28 14:48:33;;;;;;;10.93;5.37;;;;;;;;;;5076901;28;20271;-86
2022/12/28 14:51:03;;;;;;;13.13;7.20;;;;;;;;;;5075799;28;20287;-87
2022/12/28 14:53:30;;;;;;;17.90;10.20;;;;;;;;;;5058264;28;20289;-87
2022/12/28 14:55:59;;;;;;;18.63;7.23;;;;;;;;;;5041733;28;20298;-88
2022/12/28 14:58:32;;;;;;;15.17;7.40;;;;;;;;;;5075848;28;20295;-82